createdAt,value
2022-10-23T00:01:29.783Z,20.30
2022-10-23T00:03:59.809Z,20.30
2022-10-23T00:06:28.453Z,20.20
2022-10-23T00:08:56.303Z,20.20
2022-10-23T00:11:26.811Z,20.20
2022-10-23T00:13:56.340Z,20.20
2022-10-23T00:16:24.849Z,20.20
2022-10-23T00:18:52.290Z,20.20
2022-10-23T00:21:20.171Z,20.20
2022-10-23T00:23:47.679Z,20.20
2022-10-23T00:26:16.062Z,20.20
2022-10-23T00:28:45.448Z,20.20
2022-10-23T00:31:13.264Z,20.20
2022-10-23T00:33:41.935Z,20.10
2022-10-23T00:36:12.341Z,20.10
2022-10-23T00:38:40.586Z,20.10
2022-10-23T00:41:09.164Z,20.10
2022-10-23T00:44:00.814Z,20.10
2022-10-23T00:46:28.721Z,20.10
2022-10-23T00:48:57.204Z,20.10
2022-10-23T00:51:27.846Z,20.10
2022-10-23T00:54:12.826Z,20.10
2022-10-23T00:56:48.696Z,20.10
2022-10-23T00:59:16.349Z,20.10
2022-10-23T01:01:43.961Z,20.10
2022-10-23T01:04:11.767Z,20.10
2022-10-23T01:06:45.478Z,20.10
2022-10-23T01:09:19.068Z,20.10
2022-10-23T01:11:58.842Z,20.10
2022-10-23T01:14:45.795Z,20.10
2022-10-23T01:17:34.101Z,20.00
2022-10-23T01:20:23.751Z,20.00
2022-10-23T01:23:24.991Z,20.00
2022-10-23T01:26:11.254Z,20.00
2022-10-23T01:28:38.714Z,20.00
2022-10-23T01:31:12.369Z,20.00
2022-10-23T01:33:45.135Z,20.00
2022-10-23T01:36:15.829Z,20.00
2022-10-23T01:38:43.591Z,20.00
2022-10-23T01:41:36.548Z,20.00
2022-10-23T01:44:11.683Z,19.90
2022-10-23T01:46:40.396Z,20.00
2022-10-23T01:49:13.058Z,19.90
2022-10-23T01:51:44.990Z,19.90
2022-10-23T01:54:14.884Z,19.90
2022-10-23T01:56:46.882Z,19.90
2022-10-23T01:59:19.929Z,19.90
2022-10-23T02:01:51.342Z,19.90
2022-10-23T02:04:25.643Z,19.90
2022-10-23T02:06:53.532Z,19.90
2022-10-23T02:09:21.053Z,19.90
2022-10-23T02:12:20.411Z,19.90
2022-10-23T02:14:56.614Z,19.90
2022-10-23T02:17:50.045Z,19.80
2022-10-23T02:20:32.548Z,19.80
2022-10-23T02:23:27.825Z,19.80
2022-10-23T02:26:09.000Z,19.80
2022-10-23T02:28:47.292Z,19.80
2022-10-23T02:31:18.239Z,19.80
2022-10-23T02:33:47.300Z,19.80
2022-10-23T02:36:15.762Z,19.80
2022-10-23T02:38:44.699Z,19.80
2022-10-23T02:41:33.346Z,19.80
2022-10-23T02:44:38.340Z,19.80
2022-10-23T02:47:24.552Z,19.80
2022-10-23T02:50:22.140Z,19.80
2022-10-23T02:53:08.826Z,19.70
2022-10-23T02:56:01.000Z,19.70
2022-10-23T02:58:56.915Z,19.70
2022-10-23T03:01:44.648Z,19.70
2022-10-23T03:04:14.099Z,19.70
2022-10-23T03:06:41.665Z,19.70
2022-10-23T03:09:14.889Z,19.70
2022-10-23T03:11:42.347Z,19.70
2022-10-23T03:14:12.766Z,19.70
2022-10-23T03:16:40.356Z,19.70
2022-10-23T03:19:09.737Z,19.70
2022-10-23T03:21:37.494Z,19.70
2022-10-23T03:24:08.515Z,19.70
2022-10-23T03:26:41.224Z,19.60
2022-10-23T03:29:08.712Z,19.60
2022-10-23T03:31:42.357Z,19.60
2022-10-23T03:34:11.453Z,19.60
2022-10-23T03:36:41.197Z,19.70
2022-10-23T03:39:10.050Z,19.60
2022-10-23T03:41:37.484Z,19.60
2022-10-23T03:46:37.542Z,19.60
2022-10-23T03:49:05.898Z,19.60
2022-10-23T03:51:35.006Z,19.60
2022-10-23T03:54:02.656Z,19.60
2022-10-23T03:56:30.154Z,19.60
2022-10-23T03:58:57.555Z,19.60
2022-10-23T04:01:26.985Z,19.60
2022-10-23T04:03:55.365Z,19.60
2022-10-23T04:06:24.773Z,19.60
2022-10-23T04:08:56.429Z,19.60
2022-10-23T04:11:23.880Z,19.60
2022-10-23T04:13:51.258Z,19.50
2022-10-23T04:16:18.759Z,19.60
2022-10-23T04:18:46.243Z,19.60
2022-10-23T04:21:13.650Z,19.50
2022-10-23T04:23:41.088Z,19.50
2022-10-23T04:26:26.782Z,19.50
2022-10-23T04:28:54.157Z,19.50
2022-10-23T04:31:21.632Z,19.50
2022-10-23T04:33:49.953Z,19.50
2022-10-23T04:36:30.052Z,19.50
2022-10-23T04:39:02.638Z,19.50
2022-10-23T04:41:30.345Z,19.50
2022-10-23T04:43:57.776Z,19.50
2022-10-23T04:46:25.779Z,19.50
2022-10-23T04:48:53.203Z,19.50
2022-10-23T04:51:27.515Z,19.50
2022-10-23T04:54:17.813Z,19.50
2022-10-23T04:56:58.421Z,19.40
2022-10-23T04:59:27.624Z,19.40
2022-10-23T05:01:55.935Z,19.40
2022-10-23T05:04:24.606Z,19.40
2022-10-23T05:07:10.663Z,19.40
2022-10-23T05:09:57.503Z,19.40
2022-10-23T05:12:48.341Z,19.40
2022-10-23T05:15:15.773Z,19.40
2022-10-23T05:17:46.933Z,19.40
2022-10-23T05:20:20.110Z,19.40
2022-10-23T05:22:52.889Z,19.40
2022-10-23T05:25:24.609Z,19.40
2022-10-23T05:28:00.290Z,19.30
2022-10-23T05:30:27.880Z,19.40
2022-10-23T05:32:55.473Z,19.40
2022-10-23T05:35:25.873Z,19.40
2022-10-23T05:37:54.927Z,19.40
2022-10-23T05:40:24.999Z,19.30
2022-10-23T05:42:59.019Z,19.40
2022-10-23T05:45:37.056Z,19.40
2022-10-23T05:48:33.896Z,19.40
2022-10-23T05:51:23.104Z,19.40
2022-10-23T05:54:08.372Z,19.30
2022-10-23T05:56:47.178Z,19.30
2022-10-23T05:59:23.334Z,19.30
2022-10-23T06:02:09.481Z,19.30
2022-10-23T06:04:49.046Z,19.30
2022-10-23T06:07:35.987Z,19.30
2022-10-23T06:10:07.294Z,19.30
2022-10-23T06:12:39.775Z,19.30
2022-10-23T06:15:07.884Z,19.30
2022-10-23T06:17:53.091Z,19.30
2022-10-23T06:20:25.270Z,19.30
2022-10-23T06:23:04.852Z,19.30
2022-10-23T06:25:55.993Z,19.30
2022-10-23T06:28:31.726Z,19.30
2022-10-23T06:30:59.872Z,19.30
2022-10-23T06:33:27.327Z,19.30
2022-10-23T06:35:56.667Z,19.30
2022-10-23T06:38:24.258Z,19.30
2022-10-23T06:40:58.516Z,19.30
2022-10-23T06:43:34.911Z,19.30
2022-10-23T06:46:16.723Z,19.30
2022-10-23T06:49:04.446Z,19.30
2022-10-23T06:51:36.281Z,19.30
2022-10-23T06:54:05.335Z,19.20
2022-10-23T06:56:51.400Z,19.20
2022-10-23T06:59:23.115Z,19.20
2022-10-23T07:01:52.611Z,19.20
2022-10-23T07:04:20.283Z,19.20
2022-10-23T07:06:49.024Z,19.20
2022-10-23T07:09:20.503Z,19.20
2022-10-23T07:12:08.202Z,19.20
2022-10-23T07:14:44.220Z,19.20
2022-10-23T07:17:12.656Z,19.20
2022-10-23T07:19:40.549Z,19.20
2022-10-23T07:22:14.884Z,19.20
2022-10-23T07:24:43.398Z,19.20
2022-10-23T07:27:20.058Z,19.30
2022-10-23T07:29:54.858Z,19.30
2022-10-23T07:32:24.105Z,19.30
2022-10-23T07:38:00.529Z,19.30
2022-10-23T07:40:31.708Z,19.30
2022-10-23T07:42:59.128Z,19.30
2022-10-23T07:45:26.822Z,19.30
2022-10-23T07:47:54.422Z,19.30
2022-10-23T07:50:25.488Z,19.30
2022-10-23T07:52:52.980Z,19.30
2022-10-23T07:55:21.622Z,19.30
2022-10-23T07:57:58.321Z,19.30
2022-10-23T08:00:52.151Z,19.30
2022-10-23T08:03:29.677Z,19.30
2022-10-23T08:05:58.148Z,19.30
2022-10-23T08:08:26.547Z,19.40
2022-10-23T08:10:59.654Z,19.40
2022-10-23T08:13:32.465Z,19.40
2022-10-23T08:16:04.358Z,19.40
2022-10-23T08:18:51.095Z,19.40
2022-10-23T08:21:20.081Z,19.40
2022-10-23T08:23:49.311Z,19.40
2022-10-23T08:26:17.025Z,19.40
2022-10-23T08:28:44.518Z,19.50
2022-10-23T08:31:15.296Z,19.50
2022-10-23T08:33:52.022Z,19.50
2022-10-23T08:36:29.178Z,19.50
2022-10-23T08:38:58.241Z,19.50
2022-10-23T08:41:28.999Z,19.60
2022-10-23T08:44:26.600Z,19.60
2022-10-23T08:47:00.384Z,19.60
2022-10-23T08:49:55.576Z,19.60
2022-10-23T08:52:45.233Z,19.60
2022-10-23T08:55:33.622Z,19.60
2022-10-23T08:58:15.497Z,19.60
2022-10-23T09:00:43.926Z,19.60
2022-10-23T09:03:13.257Z,19.70
2022-10-23T09:06:09.926Z,19.70
2022-10-23T09:09:10.779Z,19.70
2022-10-23T09:11:56.422Z,19.70
2022-10-23T09:14:48.359Z,19.70
2022-10-23T09:17:42.411Z,19.80
2022-10-23T09:20:34.273Z,19.70
2022-10-23T09:23:15.799Z,19.80
2022-10-23T09:25:46.219Z,19.80
2022-10-23T09:28:26.219Z,19.80
2022-10-23T09:30:53.791Z,19.80
2022-10-23T09:33:26.950Z,19.80
2022-10-23T09:36:03.213Z,19.80
2022-10-23T09:38:35.071Z,19.90
2022-10-23T09:41:11.175Z,19.90
2022-10-23T09:43:38.725Z,19.90
2022-10-23T09:46:08.201Z,19.90
2022-10-23T09:48:37.338Z,19.90
2022-10-23T09:51:20.519Z,20.00
2022-10-23T09:53:57.199Z,20.00
2022-10-23T09:56:40.911Z,20.00
2022-10-23T09:59:14.349Z,20.00
2022-10-23T10:02:24.796Z,20.00
2022-10-23T10:05:39.223Z,20.00
2022-10-23T10:08:49.024Z,20.00
2022-10-23T10:11:25.507Z,20.10
2022-10-23T10:13:58.115Z,20.20
2022-10-23T10:16:51.245Z,20.30
2022-10-23T10:19:41.201Z,20.50
2022-10-23T10:22:42.766Z,20.60
2022-10-23T10:25:33.907Z,20.80
2022-10-23T10:28:03.930Z,20.90
2022-10-23T10:30:44.990Z,21.00
2022-10-23T10:33:25.363Z,21.10
2022-10-23T10:36:17.020Z,21.20
2022-10-23T10:38:47.098Z,21.20
2022-10-23T10:41:45.695Z,21.30
2022-10-23T10:44:25.215Z,21.30
2022-10-23T10:47:26.092Z,21.40
2022-10-23T10:50:22.589Z,21.40
2022-10-23T10:53:02.209Z,21.50
2022-10-23T10:55:41.736Z,21.50
2022-10-23T10:58:43.287Z,21.50
2022-10-23T11:01:36.965Z,21.60
2022-10-23T11:04:46.149Z,21.60
2022-10-23T11:07:19.119Z,21.60
2022-10-23T11:09:46.987Z,21.60
2022-10-23T11:12:25.219Z,21.60
2022-10-23T11:14:52.822Z,21.60
2022-10-23T11:17:40.986Z,21.70
2022-10-23T11:20:53.764Z,21.70
2022-10-23T11:23:58.485Z,21.70
2022-10-23T11:26:31.886Z,21.70
2022-10-23T11:29:19.133Z,21.70
2022-10-23T11:32:06.154Z,21.70
2022-10-23T11:34:47.540Z,21.70
2022-10-23T11:37:19.885Z,21.70
2022-10-23T11:39:59.550Z,21.70
2022-10-23T11:42:41.760Z,21.70
2022-10-23T11:45:29.262Z,21.70
2022-10-23T11:48:04.365Z,21.70
2022-10-23T11:50:34.841Z,21.60
2022-10-23T11:53:14.723Z,21.70
2022-10-23T11:56:11.430Z,21.70
2022-10-23T11:58:55.592Z,21.70
2022-10-23T12:01:34.756Z,21.70
2022-10-23T12:04:14.746Z,21.60
2022-10-23T12:06:50.151Z,21.60
2022-10-23T12:09:23.466Z,21.60
2022-10-23T12:12:08.253Z,21.60
2022-10-23T12:14:44.771Z,21.60
2022-10-23T12:17:24.393Z,21.60
2022-10-23T12:20:13.128Z,21.60
2022-10-23T12:22:48.191Z,21.60
2022-10-23T12:25:19.977Z,21.60
2022-10-23T12:28:19.832Z,21.60
2022-10-23T12:31:23.781Z,21.60
2022-10-23T12:34:08.346Z,21.60
2022-10-23T12:37:31.203Z,21.50
2022-10-23T12:40:02.033Z,21.60
2022-10-23T12:42:30.303Z,21.60
2022-10-23T12:45:02.750Z,21.50
2022-10-23T12:47:31.035Z,21.50
2022-10-23T12:49:58.482Z,21.50
2022-10-23T12:52:26.073Z,21.50
2022-10-23T12:54:53.628Z,21.50
2022-10-23T12:57:30.300Z,21.50
2022-10-23T13:00:12.903Z,21.50
2022-10-23T13:02:40.552Z,21.50
2022-10-23T13:05:13.407Z,21.50
2022-10-23T13:07:47.432Z,21.50
2022-10-23T13:10:20.661Z,21.50
2022-10-23T13:13:02.034Z,21.50
2022-10-23T13:15:39.589Z,21.50
2022-10-23T13:18:08.219Z,21.50
2022-10-23T13:20:44.601Z,21.50
2022-10-23T13:23:16.990Z,21.50
2022-10-23T13:25:55.062Z,21.50
2022-10-23T13:28:26.863Z,21.50
2022-10-23T13:31:07.906Z,21.50
2022-10-23T13:33:38.267Z,21.50
2022-10-23T13:36:14.422Z,21.40
2022-10-23T13:38:46.636Z,21.50
2022-10-23T13:41:19.375Z,21.40
2022-10-23T13:43:48.215Z,21.50
2022-10-23T13:46:16.396Z,21.40
2022-10-23T13:48:44.510Z,21.50
2022-10-23T13:51:19.968Z,21.40
2022-10-23T13:53:47.847Z,21.50
2022-10-23T13:56:17.611Z,21.40
2022-10-23T13:58:45.323Z,21.40
2022-10-23T14:01:35.510Z,21.40
2022-10-23T14:04:06.794Z,21.40
2022-10-23T14:06:35.103Z,21.40
2022-10-23T14:09:02.557Z,21.40
2022-10-23T14:11:30.030Z,21.40
2022-10-23T14:13:57.511Z,21.40
2022-10-23T14:16:24.993Z,21.40
2022-10-23T14:18:52.443Z,21.40
2022-10-23T14:21:21.741Z,21.40
2022-10-23T14:23:50.696Z,21.40
2022-10-23T14:26:23.467Z,21.40
2022-10-23T14:28:56.048Z,21.40
2022-10-23T14:31:24.593Z,21.40
2022-10-23T14:33:55.038Z,21.40
2022-10-23T14:36:22.718Z,21.40
2022-10-23T14:38:55.745Z,21.40
2022-10-23T14:41:23.957Z,21.40
2022-10-23T14:43:51.516Z,21.40
2022-10-23T14:46:21.891Z,21.40
2022-10-23T14:48:52.788Z,21.40
2022-10-23T14:51:32.679Z,21.40
2022-10-23T14:54:05.723Z,21.40
2022-10-23T14:56:40.160Z,21.40
2022-10-23T14:59:09.324Z,21.40
2022-10-23T15:01:43.807Z,21.40
2022-10-23T15:04:15.349Z,21.40
2022-10-23T15:06:43.757Z,21.40
2022-10-23T15:09:11.353Z,21.40
2022-10-23T15:11:38.988Z,21.40
2022-10-23T15:14:06.514Z,21.30
2022-10-23T15:16:34.093Z,21.40
2022-10-23T15:19:01.473Z,21.40
2022-10-23T15:21:28.903Z,21.40
2022-10-23T15:23:56.291Z,21.40
2022-10-23T15:26:25.618Z,21.40
2022-10-23T15:28:58.849Z,21.30
2022-10-23T15:31:38.482Z,21.30
2022-10-23T15:34:06.625Z,21.30
2022-10-23T15:36:34.555Z,21.30
2022-10-23T15:39:02.475Z,21.30
2022-10-23T15:41:34.428Z,21.30
2022-10-23T15:44:03.570Z,21.30
2022-10-23T15:46:31.119Z,21.30
2022-10-23T15:48:58.835Z,21.30
2022-10-23T15:51:26.476Z,21.40
2022-10-23T15:53:54.314Z,21.40
2022-10-23T15:56:21.823Z,21.40
2022-10-23T15:58:49.275Z,21.40
2022-10-23T16:01:16.835Z,21.40
2022-10-23T16:03:44.892Z,21.40
2022-10-23T16:06:14.351Z,21.50
2022-10-23T16:08:44.014Z,21.50
2022-10-23T16:11:21.401Z,21.50
2022-10-23T16:13:49.076Z,21.50
2022-10-23T16:16:17.894Z,21.50
2022-10-23T16:18:46.607Z,21.50
2022-10-23T16:21:26.030Z,21.50
2022-10-23T16:23:55.016Z,21.50
2022-10-23T16:26:23.171Z,21.50
2022-10-23T16:28:55.042Z,21.50
2022-10-23T16:31:24.062Z,21.50
2022-10-23T16:33:52.605Z,21.50
2022-10-23T16:36:21.216Z,21.50
2022-10-23T16:39:24.100Z,21.50
2022-10-23T16:42:10.395Z,21.50
2022-10-23T16:44:56.974Z,21.50
2022-10-23T16:47:24.436Z,21.50
2022-10-23T16:49:51.835Z,21.50
2022-10-23T16:52:19.222Z,21.50
2022-10-23T16:54:46.750Z,21.50
2022-10-23T16:57:14.182Z,21.50
2022-10-23T16:59:41.651Z,21.50
2022-10-23T17:02:13.336Z,21.50
2022-10-23T17:04:41.061Z,21.50
2022-10-23T17:07:08.504Z,21.40
2022-10-23T17:09:35.936Z,21.50
2022-10-23T17:12:03.434Z,21.40
2022-10-23T17:14:32.294Z,21.50
2022-10-23T17:17:02.788Z,21.50
2022-10-23T17:19:47.203Z,21.40
2022-10-23T17:22:15.862Z,21.40
2022-10-23T17:24:46.372Z,21.40
2022-10-23T17:27:16.445Z,21.40
2022-10-23T17:29:43.863Z,21.40
2022-10-23T17:32:11.517Z,21.40
2022-10-23T17:34:39.339Z,21.40
2022-10-23T17:37:08.103Z,21.50
2022-10-23T17:39:37.406Z,21.40
2022-10-23T17:42:04.858Z,21.40
2022-10-23T17:44:32.492Z,21.40
2022-10-23T17:47:00.084Z,21.40
2022-10-23T17:49:27.626Z,21.40
2022-10-23T17:51:57.623Z,21.40
2022-10-23T17:54:27.005Z,21.40
2022-10-23T17:56:54.977Z,21.40
2022-10-23T17:59:22.817Z,21.40
2022-10-23T18:01:50.438Z,21.40
2022-10-23T18:04:20.284Z,21.40
2022-10-23T18:06:50.877Z,21.40
2022-10-23T18:09:18.878Z,21.40
2022-10-23T18:11:48.332Z,21.40
2022-10-23T18:14:18.121Z,21.40
2022-10-23T18:16:46.293Z,21.40
2022-10-23T18:19:16.564Z,21.40
2022-10-23T18:21:44.311Z,21.40
2022-10-23T18:24:12.049Z,21.40
2022-10-23T18:26:41.513Z,21.40
2022-10-23T18:29:10.914Z,21.40
2022-10-23T18:31:39.022Z,21.40
2022-10-23T18:34:12.401Z,21.40
2022-10-23T18:36:41.124Z,21.40
2022-10-23T18:39:13.437Z,21.40
2022-10-23T18:41:46.116Z,21.40
2022-10-23T18:44:19.783Z,21.40
2022-10-23T18:46:49.569Z,21.40
2022-10-23T18:49:18.665Z,21.40
2022-10-23T18:51:46.203Z,21.40
2022-10-23T18:54:18.374Z,21.40
2022-10-23T18:56:47.375Z,21.40
2022-10-23T18:59:17.983Z,21.40
2022-10-23T19:01:45.789Z,21.40
2022-10-23T19:04:17.304Z,21.40
2022-10-23T19:06:47.789Z,21.40
2022-10-23T19:09:15.987Z,21.40
2022-10-23T19:11:45.627Z,21.40
2022-10-23T19:14:13.558Z,21.40
2022-10-23T19:16:49.968Z,21.30
2022-10-23T19:19:25.117Z,21.40
2022-10-23T19:21:55.050Z,21.40
2022-10-23T19:24:28.940Z,21.30
2022-10-23T19:26:57.541Z,21.30
2022-10-23T19:29:26.806Z,21.30
2022-10-23T19:31:54.476Z,21.30
2022-10-23T19:34:24.963Z,21.30
2022-10-23T19:36:53.832Z,21.40
2022-10-23T19:39:25.946Z,21.30
2022-10-23T19:41:54.728Z,21.30
2022-10-23T19:44:22.559Z,21.30
2022-10-23T19:46:50.432Z,21.30
2022-10-23T19:49:19.138Z,21.30
2022-10-23T19:51:51.027Z,21.30
2022-10-23T19:54:20.528Z,21.30
2022-10-23T19:56:49.931Z,21.30
2022-10-23T19:59:17.913Z,21.30
2022-10-23T20:01:47.922Z,21.30
2022-10-23T20:04:18.091Z,21.30
2022-10-23T20:06:46.227Z,21.30
2022-10-23T20:09:13.738Z,21.30
2022-10-23T20:11:41.365Z,21.30
2022-10-23T20:14:08.924Z,21.30
2022-10-23T20:16:38.967Z,21.30
2022-10-23T20:19:09.287Z,21.30
2022-10-23T20:21:38.086Z,21.30
2022-10-23T20:24:06.063Z,21.30
2022-10-23T20:26:33.778Z,21.30
2022-10-23T20:29:01.177Z,21.30
2022-10-23T20:31:28.773Z,21.30
2022-10-23T20:33:56.795Z,21.30
2022-10-23T20:36:30.258Z,21.30
2022-10-23T20:38:59.313Z,21.30
2022-10-23T20:41:28.616Z,21.30
2022-10-23T20:43:56.835Z,21.20
2022-10-23T20:46:24.985Z,21.20
2022-10-23T20:48:53.205Z,21.20
2022-10-23T20:51:22.534Z,21.20
2022-10-23T20:53:51.527Z,21.20
2022-10-23T20:56:32.539Z,21.20
2022-10-23T20:59:02.648Z,21.20
2022-10-23T21:01:31.240Z,21.20
2022-10-23T21:04:00.934Z,21.20
2022-10-23T21:06:45.395Z,21.20
2022-10-23T21:09:18.723Z,21.20
2022-10-23T21:11:46.234Z,21.10
2022-10-23T21:14:13.648Z,21.10
2022-10-23T21:16:44.715Z,21.10
2022-10-23T21:19:13.139Z,21.10
2022-10-23T21:21:40.781Z,21.10
2022-10-23T21:24:12.505Z,21.10
2022-10-23T21:26:40.000Z,21.10
2022-10-23T21:29:18.044Z,21.10
2022-10-23T21:31:54.588Z,21.00
2022-10-23T21:34:22.670Z,21.10
2022-10-23T21:39:37.579Z,21.00
2022-10-23T21:42:05.288Z,21.00
2022-10-23T21:44:32.759Z,21.00
2022-10-23T21:47:00.136Z,21.00
2022-10-23T21:49:27.623Z,21.00
2022-10-23T21:51:55.294Z,21.00
2022-10-23T21:54:23.228Z,21.00
2022-10-23T21:56:53.948Z,21.00
2022-10-23T21:59:29.079Z,21.00
2022-10-23T22:01:59.603Z,21.00
2022-10-23T22:04:27.124Z,21.00
2022-10-23T22:06:54.557Z,20.90
2022-10-23T22:09:22.603Z,21.00
2022-10-23T22:11:51.187Z,20.90
2022-10-23T22:14:18.846Z,20.90
2022-10-23T22:16:46.776Z,20.90
2022-10-23T22:19:15.642Z,20.90
2022-10-23T22:21:43.428Z,20.90
2022-10-23T22:24:10.982Z,20.90
2022-10-23T22:26:43.052Z,20.90
2022-10-23T22:29:13.486Z,20.90
2022-10-23T22:31:44.272Z,20.90
2022-10-23T22:34:27.250Z,20.80
2022-10-23T22:37:10.842Z,20.90
2022-10-23T22:39:38.755Z,20.90
2022-10-23T22:42:06.279Z,20.80
2022-10-23T22:44:33.742Z,20.80
2022-10-23T22:47:01.127Z,20.90
2022-10-23T22:49:28.607Z,20.80
2022-10-23T22:51:55.960Z,20.90
2022-10-23T22:54:23.378Z,20.80
2022-10-23T22:56:50.873Z,20.80
2022-10-23T22:59:18.343Z,20.80
2022-10-23T23:01:47.770Z,20.80
2022-10-23T23:07:10.264Z,20.80
2022-10-23T23:09:39.735Z,20.80
2022-10-23T23:12:09.070Z,20.80
2022-10-23T23:14:36.852Z,20.80
2022-10-23T23:17:04.629Z,20.80
2022-10-23T23:19:32.007Z,20.70
2022-10-23T23:21:59.602Z,20.80
2022-10-23T23:24:27.617Z,20.80
2022-10-23T23:26:55.068Z,20.70
2022-10-23T23:29:22.539Z,20.80
2022-10-23T23:31:50.004Z,20.70
2022-10-23T23:34:17.374Z,20.70
2022-10-23T23:36:44.856Z,20.70
2022-10-23T23:39:12.343Z,20.70
2022-10-23T23:41:39.838Z,20.70
2022-10-23T23:44:08.550Z,20.70
2022-10-23T23:46:36.000Z,20.70
2022-10-23T23:49:03.541Z,20.70
2022-10-23T23:51:30.921Z,20.60
2022-10-23T23:53:58.240Z,20.70
2022-10-23T23:56:25.759Z,20.70
2022-10-23T23:58:53.171Z,20.70
